createdAt,value
2018-04-22T00:00:19.674Z,22.50
2018-04-22T00:00:52.167Z,22.50
2018-04-22T00:01:23.900Z,22.50
2018-04-22T00:01:55.638Z,22.50
2018-04-22T00:02:28.129Z,22.50
2018-04-22T00:02:59.842Z,22.50
2018-04-22T00:03:31.573Z,22.50
2018-04-22T00:04:03.292Z,22.50
2018-04-22T00:04:35.018Z,22.50
2018-04-22T00:05:06.732Z,22.50
2018-04-22T00:05:38.453Z,22.50
2018-04-22T00:06:10.941Z,22.50
2018-04-22T00:06:42.679Z,22.50
2018-04-22T00:07:14.408Z,22.50
2018-04-22T00:07:46.889Z,22.50
2018-04-22T00:08:18.671Z,22.50
2018-04-22T00:08:50.420Z,22.50
2018-04-22T00:09:22.125Z,22.50
2018-04-22T00:09:53.850Z,22.50
2018-04-22T00:10:25.584Z,22.50
2018-04-22T00:10:58.065Z,22.50
2018-04-22T00:11:29.795Z,22.50
2018-04-22T00:12:02.311Z,22.50
2018-04-22T00:12:34.016Z,22.50
2018-04-22T00:13:05.758Z,22.50
2018-04-22T00:13:37.513Z,22.50
2018-04-22T00:14:09.228Z,22.50
2018-04-22T00:14:40.934Z,22.50
2018-04-22T00:15:12.665Z,22.50
2018-04-22T00:15:44.378Z,22.50
2018-04-22T00:16:16.097Z,22.50
2018-04-22T00:16:48.592Z,22.50
2018-04-22T00:17:20.310Z,22.50
2018-04-22T00:17:52.805Z,22.50
2018-04-22T00:18:24.524Z,22.50
2018-04-22T00:18:57.043Z,22.50
2018-04-22T00:19:28.751Z,22.50
2018-04-22T00:20:00.494Z,22.50
2018-04-22T00:20:32.214Z,22.50
2018-04-22T00:21:04.712Z,22.50
2018-04-22T00:21:36.439Z,22.50
2018-04-22T00:22:08.156Z,22.50
2018-04-22T00:22:40.644Z,22.50
2018-04-22T00:23:12.371Z,22.50
2018-04-22T00:23:44.855Z,22.50
2018-04-22T00:24:16.584Z,22.50
2018-04-22T00:24:49.071Z,22.50
2018-04-22T00:25:20.832Z,22.50
2018-04-22T00:25:52.546Z,22.50
2018-04-22T00:26:24.288Z,22.50
2018-04-22T00:26:56.037Z,22.50
2018-04-22T00:27:28.531Z,22.90
2018-04-22T00:28:00.258Z,22.50
2018-04-22T00:28:31.973Z,22.50
2018-04-22T00:29:04.465Z,22.50
2018-04-22T00:29:36.194Z,22.50
2018-04-22T00:30:07.958Z,22.50
2018-04-22T00:30:39.682Z,22.50
2018-04-22T00:31:11.476Z,22.50
2018-04-22T00:31:43.198Z,22.50
2018-04-22T00:32:14.928Z,22.40
2018-04-22T00:32:46.651Z,22.40
2018-04-22T00:33:18.375Z,22.50
2018-04-22T00:33:50.084Z,22.50
2018-04-22T00:34:21.815Z,22.50
2018-04-22T00:34:53.566Z,22.50
2018-04-22T00:35:25.303Z,22.50
2018-04-22T00:35:57.036Z,22.50
2018-04-22T00:36:28.798Z,22.50
2018-04-22T00:37:00.539Z,22.50
2018-04-22T00:37:32.273Z,22.50
2018-04-22T00:38:04.006Z,22.50
2018-04-22T00:38:35.727Z,22.50
2018-04-22T00:39:08.226Z,22.50
2018-04-22T00:39:39.957Z,22.50
2018-04-22T00:40:11.665Z,22.50
2018-04-22T00:40:44.155Z,22.50
2018-04-22T00:41:15.915Z,22.50
2018-04-22T00:41:47.644Z,22.50
2018-04-22T00:42:19.358Z,22.50
2018-04-22T00:42:51.849Z,22.50
2018-04-22T00:43:23.582Z,22.50
2018-04-22T00:43:55.313Z,22.50
2018-04-22T00:44:27.814Z,22.50
2018-04-22T00:44:59.542Z,22.50
2018-04-22T00:45:31.277Z,22.50
2018-04-22T00:46:02.995Z,22.50
2018-04-22T00:46:34.747Z,22.50
2018-04-22T00:47:07.236Z,22.50
2018-04-22T00:47:38.955Z,22.50
2018-04-22T00:48:10.699Z,22.50
2018-04-22T00:48:42.430Z,22.50
2018-04-22T00:49:14.192Z,22.50
2018-04-22T00:49:45.902Z,22.50
2018-04-22T00:50:17.635Z,22.50
2018-04-22T00:50:49.364Z,22.50
2018-04-22T00:51:21.115Z,22.50
2018-04-22T00:51:52.839Z,22.50
2018-04-22T00:52:24.565Z,22.50
2018-04-22T00:52:57.113Z,22.50
2018-04-22T00:53:29.606Z,22.50
2018-04-22T00:54:01.340Z,22.50
2018-04-22T00:54:33.086Z,22.50
2018-04-22T00:55:04.840Z,22.50
2018-04-22T00:55:36.567Z,22.50
2018-04-22T00:56:09.054Z,22.50
2018-04-22T00:56:40.793Z,22.50
2018-04-22T00:57:12.522Z,22.50
2018-04-22T00:57:44.271Z,22.50
2018-04-22T00:58:16.735Z,22.50
2018-04-22T00:58:48.457Z,22.50
2018-04-22T00:59:20.967Z,22.50
2018-04-22T00:59:52.710Z,22.50
2018-04-22T01:00:24.467Z,22.50
2018-04-22T01:00:56.175Z,22.50
2018-04-22T01:01:27.910Z,22.50
2018-04-22T01:01:59.655Z,22.50
2018-04-22T01:02:32.199Z,22.50
2018-04-22T01:03:03.904Z,22.50
2018-04-22T01:03:35.634Z,22.50
2018-04-22T01:04:07.358Z,22.50
2018-04-22T01:04:39.090Z,22.50
2018-04-22T01:05:11.581Z,22.50
2018-04-22T01:05:43.309Z,22.50
2018-04-22T01:06:15.034Z,22.50
2018-04-22T01:06:47.537Z,22.50
2018-04-22T01:07:19.263Z,22.50
2018-04-22T01:07:50.997Z,22.50
2018-04-22T01:08:22.735Z,22.50
2018-04-22T01:08:55.219Z,22.50
2018-04-22T01:09:26.949Z,22.50
2018-04-22T01:09:58.670Z,22.50
2018-04-22T01:10:31.155Z,22.50
2018-04-22T01:11:02.878Z,22.50
2018-04-22T01:11:35.366Z,22.50
2018-04-22T01:12:07.101Z,22.50
2018-04-22T01:12:38.857Z,22.50
2018-04-22T01:13:10.582Z,22.50
2018-04-22T01:13:43.079Z,22.50
2018-04-22T01:14:14.790Z,22.50
2018-04-22T01:14:46.540Z,22.50
2018-04-22T01:15:18.269Z,22.40
2018-04-22T01:15:50.759Z,22.40
2018-04-22T01:16:22.483Z,22.40
2018-04-22T01:16:54.987Z,22.40
2018-04-22T01:17:26.703Z,22.40
2018-04-22T01:17:58.442Z,22.40
2018-04-22T01:18:30.162Z,22.40
2018-04-22T01:19:02.661Z,22.40
2018-04-22T01:19:34.378Z,22.40
2018-04-22T01:20:06.857Z,22.50
2018-04-22T01:20:38.586Z,22.40
2018-04-22T01:21:11.105Z,22.40
2018-04-22T01:21:42.830Z,22.40
2018-04-22T01:22:14.560Z,22.50
2018-04-22T01:22:46.282Z,22.40
2018-04-22T01:23:18.037Z,22.40
2018-04-22T01:23:49.760Z,22.50
2018-04-22T01:24:22.341Z,22.50
2018-04-22T01:24:54.108Z,22.50
2018-04-22T01:25:25.832Z,22.50
2018-04-22T01:25:58.328Z,22.50
2018-04-22T01:26:30.039Z,22.50
2018-04-22T01:27:01.788Z,22.50
2018-04-22T01:27:34.275Z,22.50
2018-04-22T01:28:05.990Z,22.50
2018-04-22T01:28:37.714Z,22.50
2018-04-22T01:29:10.643Z,22.50
2018-04-22T01:29:42.618Z,22.50
2018-04-22T01:30:14.546Z,22.50
2018-04-22T01:30:46.244Z,22.50
2018-04-22T01:31:17.959Z,22.50
2018-04-22T01:31:49.698Z,22.50
2018-04-22T01:32:21.421Z,22.50
2018-04-22T01:32:53.149Z,22.50
2018-04-22T01:33:24.900Z,22.50
2018-04-22T01:33:56.621Z,22.50
2018-04-22T01:34:28.356Z,22.50
2018-04-22T01:35:00.141Z,22.50
2018-04-22T01:35:31.853Z,22.50
2018-04-22T01:36:03.582Z,22.50
2018-04-22T01:36:35.324Z,22.50
2018-04-22T01:37:07.796Z,22.50
2018-04-22T01:37:39.517Z,22.50
2018-04-22T01:38:11.997Z,22.50
2018-04-22T01:38:43.721Z,22.50
2018-04-22T01:39:16.205Z,22.50
2018-04-22T01:39:47.923Z,22.50
2018-04-22T01:40:19.653Z,22.50
2018-04-22T01:40:51.392Z,22.50
2018-04-22T01:41:23.128Z,22.50
2018-04-22T01:41:54.858Z,22.50
2018-04-22T01:42:26.570Z,22.50
2018-04-22T01:42:58.293Z,22.50
2018-04-22T01:43:30.001Z,22.50
2018-04-22T01:44:01.738Z,22.50
2018-04-22T01:44:33.459Z,22.50
2018-04-22T01:45:05.926Z,22.50
2018-04-22T01:45:37.651Z,22.50
2018-04-22T01:46:09.399Z,22.50
2018-04-22T01:46:41.887Z,22.50
2018-04-22T01:47:13.614Z,22.50
2018-04-22T01:47:45.356Z,22.50
2018-04-22T01:48:17.898Z,22.50
2018-04-22T01:48:50.382Z,22.50
2018-04-22T01:49:22.108Z,22.50
2018-04-22T01:49:54.594Z,22.50
2018-04-22T01:50:26.320Z,22.40
2018-04-22T01:50:59.325Z,22.50
2018-04-22T01:51:31.788Z,22.50
2018-04-22T01:52:03.515Z,22.50
2018-04-22T01:52:35.355Z,22.50
2018-04-22T01:53:07.058Z,22.50
2018-04-22T01:53:38.777Z,22.50
2018-04-22T01:54:10.500Z,22.50
2018-04-22T01:54:42.252Z,22.50
2018-04-22T01:55:13.999Z,22.50
2018-04-22T01:55:45.757Z,22.50
2018-04-22T01:56:17.480Z,22.50
2018-04-22T01:56:49.191Z,22.50
2018-04-22T01:57:20.926Z,22.50
2018-04-22T01:57:53.431Z,22.50
2018-04-22T01:58:25.143Z,22.40
2018-04-22T01:58:57.646Z,22.50
2018-04-22T01:59:29.364Z,22.50
2018-04-22T02:00:01.126Z,22.40
2018-04-22T02:00:32.872Z,22.50
2018-04-22T02:01:04.603Z,22.50
2018-04-22T02:01:36.345Z,22.50
2018-04-22T02:02:08.078Z,22.50
2018-04-22T02:02:39.822Z,22.50
2018-04-22T02:03:12.321Z,22.50
2018-04-22T02:03:44.034Z,22.50
2018-04-22T02:04:15.768Z,22.50
2018-04-22T02:04:47.519Z,22.50
2018-04-22T02:05:19.996Z,22.50
2018-04-22T02:05:51.757Z,22.50
2018-04-22T02:06:23.467Z,22.50
2018-04-22T02:06:55.202Z,22.50
2018-04-22T02:07:26.959Z,22.50
2018-04-22T02:07:58.673Z,22.50
2018-04-22T02:08:31.166Z,22.50
2018-04-22T02:09:02.914Z,22.50
2018-04-22T02:09:34.674Z,22.50
2018-04-22T02:10:06.391Z,22.50
2018-04-22T02:10:38.168Z,22.50
2018-04-22T02:11:09.913Z,22.50
2018-04-22T02:11:41.653Z,22.50
2018-04-22T02:12:13.381Z,22.50
2018-04-22T02:12:45.140Z,22.50
2018-04-22T02:13:16.869Z,22.50
2018-04-22T02:13:48.596Z,22.50
2018-04-22T02:14:20.316Z,22.50
2018-04-22T02:14:52.063Z,22.50
2018-04-22T02:15:23.786Z,22.50
2018-04-22T02:15:55.703Z,22.40
2018-04-22T02:16:27.432Z,22.50
2018-04-22T02:16:59.174Z,22.40
2018-04-22T02:17:30.920Z,22.50
2018-04-22T02:18:03.414Z,22.50
2018-04-22T02:18:35.124Z,22.50
2018-04-22T02:19:06.869Z,22.50
2018-04-22T02:19:38.595Z,22.50
2018-04-22T02:20:11.079Z,22.50
2018-04-22T02:20:42.809Z,22.50
2018-04-22T02:21:14.577Z,22.50
2018-04-22T02:21:46.305Z,22.50
2018-04-22T02:22:18.042Z,22.50
2018-04-22T02:22:50.546Z,22.50
2018-04-22T02:23:22.275Z,22.50
2018-04-22T02:23:54.005Z,22.50
2018-04-22T02:24:25.730Z,22.50
2018-04-22T02:24:58.289Z,22.50
2018-04-22T02:25:30.784Z,22.50
2018-04-22T02:26:02.509Z,22.50
2018-04-22T02:26:34.252Z,22.50
2018-04-22T02:27:05.986Z,22.50
2018-04-22T02:27:38.473Z,22.50
2018-04-22T02:28:10.212Z,22.40
2018-04-22T02:28:41.926Z,22.40
2018-04-22T02:29:14.405Z,22.40
2018-04-22T02:29:46.134Z,22.40
2018-04-22T02:30:18.631Z,22.50
2018-04-22T02:30:50.352Z,22.50
2018-04-22T02:31:22.918Z,22.40
2018-04-22T02:31:55.385Z,22.40
2018-04-22T02:32:27.122Z,22.40
2018-04-22T02:32:59.626Z,22.40
2018-04-22T02:33:31.363Z,22.40
2018-04-22T02:34:03.093Z,22.40
2018-04-22T02:34:34.832Z,22.40
2018-04-22T02:35:06.565Z,22.40
2018-04-22T02:35:38.310Z,22.40
2018-04-22T02:36:10.045Z,22.40
2018-04-22T02:36:42.578Z,22.40
2018-04-22T02:37:14.300Z,22.40
2018-04-22T02:37:46.011Z,22.40
2018-04-22T02:38:17.734Z,22.40
2018-04-22T02:38:50.226Z,22.40
2018-04-22T02:39:21.947Z,22.40
2018-04-22T02:39:54.438Z,22.40
2018-04-22T02:40:27.067Z,22.40
2018-04-22T02:40:59.561Z,22.40
2018-04-22T02:41:31.284Z,22.40
2018-04-22T02:42:03.032Z,22.40
2018-04-22T02:42:34.765Z,22.40
2018-04-22T02:43:07.324Z,22.40
2018-04-22T02:43:39.873Z,22.40
2018-04-22T02:44:11.530Z,22.40
2018-04-22T02:44:44.095Z,22.40
2018-04-22T02:45:16.595Z,22.40
2018-04-22T02:45:48.316Z,22.40
2018-04-22T02:46:20.061Z,22.40
2018-04-22T02:46:51.793Z,22.40
2018-04-22T02:47:24.266Z,22.40
2018-04-22T02:47:55.993Z,22.40
2018-04-22T02:48:28.474Z,22.50
2018-04-22T02:49:00.212Z,22.40
2018-04-22T02:49:31.955Z,22.50
2018-04-22T02:50:03.654Z,22.50
2018-04-22T02:50:35.391Z,22.50
2018-04-22T02:51:07.156Z,22.40
2018-04-22T02:51:38.862Z,22.50
2018-04-22T02:52:10.578Z,22.50
2018-04-22T02:52:42.311Z,22.50
2018-04-22T02:53:14.014Z,22.50
2018-04-22T02:53:45.755Z,22.50
2018-04-22T02:54:17.536Z,22.50
2018-04-22T02:54:49.238Z,22.50
2018-04-22T02:55:20.979Z,22.50
2018-04-22T02:55:52.715Z,22.50
2018-04-22T02:56:24.422Z,22.50
2018-04-22T02:56:56.930Z,22.40
2018-04-22T02:57:28.670Z,22.40
2018-04-22T02:58:00.394Z,22.40
2018-04-22T02:58:32.105Z,22.40
2018-04-22T02:59:03.833Z,22.40
2018-04-22T02:59:35.549Z,22.40
2018-04-22T03:00:08.036Z,22.40
2018-04-22T03:00:39.787Z,22.40
2018-04-22T03:01:12.305Z,22.40
2018-04-22T03:01:44.025Z,22.40
2018-04-22T03:02:15.792Z,22.40
2018-04-22T03:02:47.525Z,22.40
2018-04-22T03:03:19.265Z,22.40
2018-04-22T03:03:50.993Z,22.40
2018-04-22T03:04:22.724Z,22.40
2018-04-22T03:04:54.443Z,22.40
2018-04-22T03:05:26.224Z,22.40
2018-04-22T03:05:57.995Z,22.40
2018-04-22T03:06:29.753Z,22.40
2018-04-22T03:07:01.470Z,22.40
2018-04-22T03:07:33.235Z,22.40
2018-04-22T03:08:04.994Z,22.40
2018-04-22T03:08:36.715Z,22.40
2018-04-22T03:09:08.473Z,22.40
2018-04-22T03:09:40.210Z,22.40
2018-04-22T03:10:11.935Z,22.40
2018-04-22T03:10:43.687Z,22.40
2018-04-22T03:11:15.444Z,22.40
2018-04-22T03:11:47.192Z,22.40
2018-04-22T03:12:18.933Z,22.40
2018-04-22T03:12:50.658Z,22.40
2018-04-22T03:13:22.391Z,22.40
2018-04-22T03:13:54.125Z,22.40
2018-04-22T03:14:25.856Z,22.50
2018-04-22T03:14:57.616Z,22.40
2018-04-22T03:15:29.363Z,22.40
2018-04-22T03:16:01.067Z,22.40
2018-04-22T03:16:33.572Z,22.40
2018-04-22T03:17:05.322Z,22.40
2018-04-22T03:17:37.091Z,22.40
2018-04-22T03:18:08.846Z,22.40
2018-04-22T03:18:40.564Z,22.40
2018-04-22T03:19:12.297Z,22.40
2018-04-22T03:19:44.022Z,22.40
2018-04-22T03:20:15.770Z,22.40
2018-04-22T03:20:47.487Z,22.40
2018-04-22T03:21:19.223Z,22.40
2018-04-22T03:21:51.724Z,22.40
2018-04-22T03:22:23.463Z,22.40
2018-04-22T03:22:55.197Z,22.40
2018-04-22T03:23:26.934Z,22.40
2018-04-22T03:23:58.647Z,22.40
2018-04-22T03:24:31.159Z,22.40
2018-04-22T03:25:02.901Z,22.40
2018-04-22T03:25:34.648Z,22.40
2018-04-22T03:26:06.371Z,22.40
2018-04-22T03:26:38.107Z,22.40
2018-04-22T03:27:09.882Z,22.40
2018-04-22T03:27:41.635Z,22.40
2018-04-22T03:28:13.369Z,22.40
2018-04-22T03:28:45.117Z,22.40
2018-04-22T03:29:16.899Z,22.40
2018-04-22T03:29:48.626Z,22.40
2018-04-22T03:30:20.358Z,22.40
2018-04-22T03:30:52.111Z,22.40
2018-04-22T03:31:23.818Z,22.40
2018-04-22T03:31:55.553Z,22.40
2018-04-22T03:32:28.053Z,22.40
2018-04-22T03:32:59.832Z,22.40
2018-04-22T03:33:31.587Z,22.40
2018-04-22T03:34:03.347Z,22.40
2018-04-22T03:34:35.895Z,22.40
2018-04-22T03:35:08.415Z,22.40
2018-04-22T03:35:40.134Z,22.40
2018-04-22T03:36:11.863Z,22.40
2018-04-22T03:36:43.618Z,22.40
2018-04-22T03:37:15.347Z,22.40
2018-04-22T03:37:47.096Z,22.40
2018-04-22T03:38:19.618Z,22.40
2018-04-22T03:38:51.358Z,22.40
2018-04-22T03:39:23.092Z,22.40
2018-04-22T03:39:54.810Z,22.40
2018-04-22T03:40:26.551Z,22.40
2018-04-22T03:40:58.254Z,22.40
2018-04-22T03:41:30.487Z,22.40
2018-04-22T03:42:02.234Z,22.40
2018-04-22T03:42:34.024Z,22.40
2018-04-22T03:43:05.693Z,22.40
2018-04-22T03:43:37.443Z,22.40
2018-04-22T03:44:09.173Z,22.40
2018-04-22T03:44:40.894Z,22.40
2018-04-22T03:45:13.393Z,22.40
2018-04-22T03:45:45.106Z,22.40
2018-04-22T03:46:16.858Z,22.40
2018-04-22T03:46:48.583Z,22.40
2018-04-22T03:47:20.362Z,22.40
2018-04-22T03:47:52.843Z,22.40
2018-04-22T03:48:24.572Z,22.30
2018-04-22T03:48:56.357Z,22.30
2018-04-22T03:49:28.100Z,22.30
2018-04-22T03:49:59.835Z,22.40
2018-04-22T03:50:31.599Z,22.40
2018-04-22T03:51:03.352Z,22.30
2018-04-22T03:51:35.850Z,22.40
2018-04-22T03:52:07.575Z,22.30
2018-04-22T03:52:39.325Z,22.30
2018-04-22T03:53:11.811Z,22.40
2018-04-22T03:53:43.570Z,22.40
2018-04-22T03:54:15.331Z,22.40
2018-04-22T03:54:47.064Z,22.40
2018-04-22T03:55:18.786Z,22.40
2018-04-22T03:55:50.517Z,22.40
2018-04-22T03:56:22.250Z,22.40
2018-04-22T03:56:53.979Z,22.40
2018-04-22T03:57:26.494Z,22.40
2018-04-22T03:57:58.246Z,22.30
2018-04-22T03:58:29.975Z,22.40
2018-04-22T03:59:01.698Z,22.40
2018-04-22T03:59:33.422Z,22.30
2018-04-22T04:00:05.921Z,22.30
2018-04-22T04:00:37.641Z,22.30
2018-04-22T04:01:56.893Z,22.30
2018-04-22T04:02:29.385Z,22.30
2018-04-22T04:03:01.123Z,22.30
2018-04-22T04:03:32.844Z,22.30
2018-04-22T04:04:04.577Z,22.30
2018-04-22T04:04:37.062Z,22.30
2018-04-22T04:05:08.783Z,22.30
2018-04-22T04:05:41.273Z,22.30
2018-04-22T04:06:13.001Z,22.30
2018-04-22T04:06:44.745Z,22.30
2018-04-22T04:07:16.459Z,22.30
2018-04-22T04:07:48.218Z,22.30
2018-04-22T04:08:20.701Z,22.30
2018-04-22T04:08:52.471Z,22.30
2018-04-22T04:09:24.211Z,22.30
2018-04-22T04:09:55.953Z,22.30
2018-04-22T04:10:27.807Z,22.30
2018-04-22T04:10:59.512Z,22.30
2018-04-22T04:11:32.006Z,22.30
2018-04-22T04:12:03.726Z,22.30
2018-04-22T04:12:35.471Z,22.30
2018-04-22T04:13:07.194Z,22.40
2018-04-22T04:13:39.700Z,22.30
2018-04-22T04:14:11.446Z,22.30
2018-04-22T04:14:43.224Z,22.30
2018-04-22T04:15:14.937Z,22.30
2018-04-22T04:15:46.680Z,22.30
2018-04-22T04:16:18.398Z,22.30
2018-04-22T04:16:50.138Z,22.30
2018-04-22T04:17:22.626Z,22.30
2018-04-22T04:17:54.358Z,22.30
2018-04-22T04:18:26.074Z,22.40
2018-04-22T04:18:58.566Z,22.40
2018-04-22T04:19:30.295Z,22.30
2018-04-22T04:20:02.026Z,22.30
2018-04-22T04:20:34.527Z,22.30
2018-04-22T04:21:06.253Z,22.30
2018-04-22T04:21:38.000Z,22.30
2018-04-22T04:22:09.733Z,22.30
2018-04-22T04:22:41.478Z,22.30
2018-04-22T04:23:13.230Z,22.30
2018-04-22T04:23:44.953Z,22.30
2018-04-22T04:24:17.466Z,22.30
2018-04-22T04:24:49.211Z,22.30
2018-04-22T04:25:20.945Z,22.30
2018-04-22T04:25:52.660Z,22.30
2018-04-22T04:26:24.383Z,22.30
2018-04-22T04:26:56.150Z,22.30
2018-04-22T04:27:28.611Z,22.30
2018-04-22T04:28:00.341Z,22.30
2018-04-22T04:28:32.828Z,22.30
2018-04-22T04:29:04.580Z,22.30
2018-04-22T04:29:36.305Z,22.30
2018-04-22T04:30:08.068Z,22.30
2018-04-22T04:30:39.814Z,22.30
2018-04-22T04:31:11.537Z,22.20
2018-04-22T04:31:43.258Z,22.20
2018-04-22T04:32:15.753Z,22.20
2018-04-22T04:32:47.518Z,22.20
2018-04-22T04:33:19.231Z,22.20
2018-04-22T04:33:50.979Z,22.20
2018-04-22T04:34:22.712Z,22.30
2018-04-22T04:34:55.193Z,22.30
2018-04-22T04:35:26.914Z,22.30
2018-04-22T04:35:59.422Z,22.30
2018-04-22T04:36:31.243Z,22.30
2018-04-22T04:37:02.969Z,22.40
2018-04-22T04:37:35.453Z,22.40
2018-04-22T04:38:07.208Z,22.30
2018-04-22T04:38:38.942Z,22.30
2018-04-22T04:39:10.671Z,22.30
2018-04-22T04:39:42.408Z,22.30
2018-04-22T04:40:14.889Z,22.30
2018-04-22T04:40:46.728Z,22.30
2018-04-22T04:41:18.466Z,22.40
2018-04-22T04:41:50.951Z,22.40
2018-04-22T04:42:22.718Z,22.30
2018-04-22T04:42:54.449Z,22.40
2018-04-22T04:43:26.231Z,22.40
2018-04-22T04:43:57.928Z,22.40
2018-04-22T04:44:29.676Z,22.40
2018-04-22T04:45:01.415Z,22.40
2018-04-22T04:45:33.132Z,22.40
2018-04-22T04:46:05.637Z,22.40
2018-04-22T04:46:37.367Z,22.40
2018-04-22T04:47:09.091Z,22.40
2018-04-22T04:47:40.837Z,22.40
2018-04-22T04:48:13.358Z,22.30
2018-04-22T04:48:45.195Z,22.30
2018-04-22T04:49:16.893Z,22.30
2018-04-22T04:49:49.371Z,22.30
2018-04-22T04:50:21.090Z,22.30
2018-04-22T04:50:52.821Z,22.30
2018-04-22T04:51:25.303Z,22.30
2018-04-22T04:51:57.017Z,22.30
2018-04-22T04:52:28.733Z,22.30
2018-04-22T04:53:00.466Z,22.30
2018-04-22T04:53:32.222Z,22.40
2018-04-22T04:54:03.946Z,22.40
2018-04-22T04:54:35.676Z,22.40
2018-04-22T04:55:07.405Z,22.40
2018-04-22T04:55:39.894Z,22.40
2018-04-22T04:56:11.628Z,22.30
2018-04-22T04:56:43.368Z,22.40
2018-04-22T04:57:15.863Z,22.40
2018-04-22T04:57:47.590Z,22.30
2018-04-22T04:58:19.317Z,22.40
2018-04-22T04:58:51.048Z,22.40
2018-04-22T04:59:23.547Z,22.40
2018-04-22T04:59:55.285Z,22.30
2018-04-22T05:00:27.012Z,22.40
2018-04-22T05:00:59.047Z,22.40
2018-04-22T05:01:30.756Z,22.40
2018-04-22T05:02:02.520Z,22.40
2018-04-22T05:02:34.216Z,22.40
2018-04-22T05:03:05.959Z,22.30
2018-04-22T05:03:37.693Z,22.30
2018-04-22T05:04:09.413Z,22.30
2018-04-22T05:04:41.915Z,22.30
2018-04-22T05:05:13.651Z,22.30
2018-04-22T05:05:45.469Z,22.30
2018-04-22T05:06:17.195Z,22.30
2018-04-22T05:06:48.901Z,22.30
2018-04-22T05:07:20.640Z,22.30
2018-04-22T05:07:52.352Z,22.30
2018-04-22T05:08:24.098Z,22.30
2018-04-22T05:08:55.839Z,22.30
2018-04-22T05:09:27.567Z,22.30
2018-04-22T05:10:00.064Z,22.30
2018-04-22T05:10:31.805Z,22.30
2018-04-22T05:11:03.531Z,22.30
2018-04-22T05:11:35.284Z,22.30
2018-04-22T05:12:07.011Z,22.30
2018-04-22T05:12:39.543Z,22.30
2018-04-22T05:13:11.282Z,22.30
2018-04-22T05:13:43.024Z,22.30
2018-04-22T05:14:14.749Z,22.30
2018-04-22T05:14:46.490Z,22.40
2018-04-22T05:15:18.205Z,22.40
2018-04-22T05:15:49.978Z,22.40
2018-04-22T05:16:21.693Z,22.40
2018-04-22T05:16:53.435Z,22.40
2018-04-22T05:17:25.191Z,22.40
2018-04-22T05:17:56.940Z,22.40
2018-04-22T05:18:28.673Z,22.30
2018-04-22T05:19:00.424Z,22.30
2018-04-22T05:19:32.158Z,22.30
2018-04-22T05:20:03.943Z,22.30
2018-04-22T05:20:35.672Z,22.30
2018-04-22T05:21:07.419Z,22.30
2018-04-22T05:21:39.190Z,22.30
2018-04-22T05:22:10.915Z,22.40
2018-04-22T05:22:42.654Z,22.30
2018-04-22T05:23:14.368Z,22.40
2018-04-22T05:23:46.099Z,22.30
2018-04-22T05:24:18.679Z,22.30
2018-04-22T05:24:50.339Z,22.30
2018-04-22T05:25:22.068Z,22.30
2018-04-22T05:25:53.821Z,22.40
2018-04-22T05:26:25.582Z,22.30
2018-04-22T05:26:58.043Z,22.30
2018-04-22T05:27:29.782Z,22.30
2018-04-22T05:28:01.505Z,22.30
2018-04-22T05:28:33.254Z,22.30
2018-04-22T05:29:05.035Z,22.30
2018-04-22T05:29:36.770Z,22.40
2018-04-22T05:30:08.564Z,22.40
2018-04-22T05:30:40.285Z,22.40
2018-04-22T05:31:12.081Z,22.40
2018-04-22T05:31:43.766Z,22.30
2018-04-22T05:32:15.536Z,22.30
2018-04-22T05:32:47.254Z,22.30
2018-04-22T05:33:19.020Z,22.30
2018-04-22T05:33:50.793Z,22.30
2018-04-22T05:34:22.504Z,22.30
2018-04-22T05:34:54.227Z,22.30
2018-04-22T05:35:25.994Z,22.30
2018-04-22T05:35:57.785Z,22.30
2018-04-22T05:36:29.544Z,22.30
2018-04-22T05:37:01.250Z,22.30
2018-04-22T05:37:33.745Z,22.30
2018-04-22T05:38:05.519Z,22.30
2018-04-22T05:38:37.246Z,22.30
2018-04-22T05:39:08.979Z,22.30
2018-04-22T05:39:40.711Z,22.30
2018-04-22T05:40:12.431Z,22.20
2018-04-22T05:40:45.031Z,22.20
2018-04-22T05:41:16.723Z,22.30
2018-04-22T05:41:49.282Z,22.30
2018-04-22T05:42:21.015Z,22.30
2018-04-22T05:42:52.744Z,22.30
2018-04-22T05:43:24.469Z,22.30
2018-04-22T05:43:56.188Z,22.20
2018-04-22T05:44:27.951Z,22.20
2018-04-22T05:44:59.687Z,22.30
2018-04-22T05:45:31.412Z,22.30
2018-04-22T05:46:03.139Z,22.30
2018-04-22T05:46:34.905Z,22.30
2018-04-22T05:47:07.418Z,22.30
2018-04-22T05:47:39.153Z,22.30
2018-04-22T05:48:10.875Z,22.30
2018-04-22T05:48:42.738Z,22.30
2018-04-22T05:49:14.460Z,22.30
2018-04-22T05:49:46.192Z,22.30
2018-04-22T05:50:17.935Z,22.30
2018-04-22T05:50:50.460Z,22.30
2018-04-22T05:51:22.197Z,22.30
2018-04-22T05:51:53.929Z,22.30
2018-04-22T05:52:25.692Z,22.30
2018-04-22T05:52:57.430Z,22.30
2018-04-22T05:53:29.156Z,22.30
2018-04-22T05:54:00.904Z,22.30
2018-04-22T05:54:32.638Z,22.30
2018-04-22T05:55:04.372Z,22.30
2018-04-22T05:55:36.108Z,22.30
2018-04-22T05:56:07.842Z,22.30
2018-04-22T05:56:40.324Z,22.30
2018-04-22T05:57:12.059Z,22.30
2018-04-22T05:57:43.798Z,22.30
2018-04-22T05:58:15.532Z,22.30
2018-04-22T05:58:48.037Z,22.30
2018-04-22T05:59:19.761Z,22.30
2018-04-22T05:59:51.521Z,22.30
2018-04-22T06:00:23.252Z,22.30
2018-04-22T06:00:55.068Z,22.30
2018-04-22T06:01:27.573Z,22.30
2018-04-22T06:01:59.316Z,22.30
2018-04-22T06:02:31.041Z,22.30
2018-04-22T06:03:02.807Z,22.30
2018-04-22T06:03:34.520Z,22.30
2018-04-22T06:04:06.278Z,22.30
2018-04-22T06:04:38.014Z,22.30
2018-04-22T06:05:09.752Z,22.30
2018-04-22T06:05:41.529Z,22.30
2018-04-22T06:06:13.299Z,22.30
2018-04-22T06:06:45.027Z,22.30
2018-04-22T06:07:16.754Z,22.20
2018-04-22T06:07:48.568Z,22.20
2018-04-22T06:08:21.067Z,22.20
2018-04-22T06:08:52.788Z,22.20
2018-04-22T06:09:24.528Z,22.20
2018-04-22T06:09:57.095Z,22.20
2018-04-22T06:10:28.838Z,22.20
2018-04-22T06:11:00.593Z,22.20
2018-04-22T06:11:32.319Z,22.10
2018-04-22T06:12:04.074Z,22.20
2018-04-22T06:12:35.806Z,22.20
2018-04-22T06:13:08.322Z,22.20
2018-04-22T06:13:40.056Z,22.00
2018-04-22T06:14:11.809Z,22.20
2018-04-22T06:14:43.536Z,22.20
2018-04-22T06:15:15.256Z,22.30
2018-04-22T06:15:46.988Z,22.20
2018-04-22T06:16:19.490Z,22.30
2018-04-22T06:16:51.233Z,22.20
2018-04-22T06:17:23.040Z,22.20
2018-04-22T06:17:54.734Z,21.70
2018-04-22T06:18:26.445Z,22.30
2018-04-22T06:18:58.182Z,22.30
2018-04-22T06:19:29.952Z,22.30
2018-04-22T06:20:01.694Z,22.30
2018-04-22T06:20:34.180Z,22.30
2018-04-22T06:21:05.922Z,22.30
2018-04-22T06:21:37.658Z,22.30
2018-04-22T06:22:09.394Z,22.30
2018-04-22T06:22:41.133Z,22.30
2018-04-22T06:23:12.876Z,22.30
2018-04-22T06:23:44.603Z,22.30
2018-04-22T06:24:16.338Z,22.30
2018-04-22T06:24:48.064Z,22.30
2018-04-22T06:25:20.552Z,22.30
2018-04-22T06:25:53.070Z,22.30
2018-04-22T06:26:24.795Z,22.30
2018-04-22T06:26:56.570Z,22.30
2018-04-22T06:27:28.290Z,22.30
2018-04-22T06:28:00.039Z,22.30
2018-04-22T06:28:31.778Z,22.30
2018-04-22T06:29:03.534Z,22.30
2018-04-22T06:29:35.267Z,22.20
2018-04-22T06:30:07.018Z,22.30
2018-04-22T06:30:38.729Z,22.20
2018-04-22T06:31:10.544Z,22.20
2018-04-22T06:31:42.280Z,22.20
2018-04-22T06:32:14.781Z,22.20
2018-04-22T06:32:46.511Z,22.20
2018-04-22T06:33:18.279Z,22.20
2018-04-22T06:33:50.016Z,22.20
2018-04-22T06:34:21.750Z,22.20
2018-04-22T06:34:53.487Z,22.20
2018-04-22T06:35:25.218Z,22.20
2018-04-22T06:35:57.742Z,22.20
2018-04-22T06:36:29.454Z,22.20
2018-04-22T06:37:01.244Z,22.20
2018-04-22T06:37:32.981Z,22.20
2018-04-22T06:38:04.689Z,22.20
2018-04-22T06:38:36.433Z,22.20
2018-04-22T06:39:08.159Z,22.20
2018-04-22T06:39:39.890Z,22.20
2018-04-22T06:40:11.697Z,22.20
2018-04-22T06:40:43.371Z,22.20
2018-04-22T06:41:15.902Z,22.20
2018-04-22T06:41:47.721Z,22.20
2018-04-22T06:42:19.431Z,22.20
2018-04-22T06:42:51.912Z,22.30
2018-04-22T06:43:23.649Z,22.30
2018-04-22T06:43:55.373Z,22.20
2018-04-22T06:44:27.871Z,22.30
2018-04-22T06:44:59.681Z,22.20
2018-04-22T06:45:32.174Z,22.30
2018-04-22T06:46:03.921Z,22.20
2018-04-22T06:46:35.650Z,22.30
2018-04-22T06:47:07.367Z,22.30
2018-04-22T06:47:39.873Z,22.30
2018-04-22T06:48:11.598Z,22.30
2018-04-22T06:48:44.089Z,22.30
2018-04-22T06:49:15.826Z,22.30
2018-04-22T06:49:47.552Z,22.30
2018-04-22T06:50:19.289Z,22.20
2018-04-22T06:50:51.007Z,22.20
2018-04-22T06:51:22.731Z,22.20